La rose des vents
Donnes mto: Semaine 17/11/08 - 23/11/08 (S 47)
Date Horaire Temp. E. Hum. E. P.atmo. Pluie Vent 1mn Direction Ensoleilleme Ev.Tr. Solaire P. de rose Temp au vent Rafales
17/11/2008 00:00 12,2 C 56 % 1018,9 hPa 0,0 l/m 4,3 km/h (1 Bft) NO 0,00 h 0,051 mm 0 W/m 3,7 C 12,2 C 5,8 km/h (2 Bft)
17/11/2008 01:00 12,3 C 55 % 1018,4 hPa 0,0 l/m 5,5 km/h (1 Bft) O 0,00 h 0,051 mm 0 W/m 3,4 C 12,3 C 6,8 km/h (2 Bft)
17/11/2008 02:00 12,1 C 54 % 1018,3 hPa 0,0 l/m 5,6 km/h (1 Bft) O-NO 0,00 h 0,051 mm 0 W/m 3,0 C 12,1 C 7,2 km/h (2 Bft)
17/11/2008 03:00 12,2 C 52 % 1017,9 hPa 0,0 l/m 6,3 km/h (2 Bft) O 0,00 h 0,051 mm 0 W/m 2,7 C 12,2 C 8,1 km/h (2 Bft)
17/11/2008 04:00 11,8 C 51 % 1017,4 hPa 0,0 l/m 4,3 km/h (1 Bft) NO 0,00 h 0,076 mm 0 W/m 2,0 C 11,8 C 5,8 km/h (2 Bft)
17/11/2008 05:00 11,6 C 52 % 1017,1 hPa 0,0 l/m 3,9 km/h (1 Bft) O-NO 0,00 h 0,051 mm 0 W/m 2,0 C 11,6 C 5,4 km/h (1 Bft)
17/11/2008 06:00 11,5 C 52 % 1017,5 hPa 0,0 l/m 3,7 km/h (1 Bft) NO 0,00 h 0,051 mm 0 W/m 1,9 C 11,5 C 5,2 km/h (1 Bft)
17/11/2008 07:00 11,7 C 50 % 1017,8 hPa 0,0 l/m 3,4 km/h (1 Bft) O-NO 0,27 h 0,051 mm 20 W/m 1,7 C 11,7 C 4,8 km/h (1 Bft)
17/11/2008 08:00 12,6 C 49 % 1018,2 hPa 0,0 l/m 2,9 km/h (1 Bft) O-NO 1,00 h 0,025 mm 151 W/m 2,3 C 12,6 C 4,2 km/h (1 Bft)
17/11/2008 09:00 13,8 C 50 % 1018,4 hPa 0,0 l/m 1,3 km/h (1 Bft) NO 0,67 h 0,102 mm 200 W/m 3,7 C 13,8 C 2,3 km/h (1 Bft)
17/11/2008 10:00 15,3 C 53 % 1018,1 hPa 0,0 l/m 0,5 km/h (0 Bft) NO 0,58 h 0,127 mm 229 W/m 5,8 C 15,3 C 1,3 km/h (1 Bft)
17/11/2008 11:00 16,2 C 60 % 1017,9 hPa 0,0 l/m 0,2 km/h (0 Bft) E-NE 0,50 h 0,127 mm 257 W/m 8,4 C 16,2 C 0,3 km/h (0 Bft)
17/11/2008 12:00 17,2 C 60 % 1017,4 hPa 0,0 l/m 1,8 km/h (1 Bft) E 0,65 h 0,152 mm 349 W/m 9,3 C 17,2 C 3,3 km/h (1 Bft)
17/11/2008 13:00 17,6 C 52 % 1017,1 hPa 0,0 l/m 2,7 km/h (1 Bft) SE 0,98 h 0,203 mm 382 W/m 7,5 C 17,6 C 4,7 km/h (1 Bft)
17/11/2008 14:00 18,3 C 50 % 1016,9 hPa 0,0 l/m 1,0 km/h (0 Bft) E-SE 1,00 h 0,229 mm 314 W/m 7,5 C 18,3 C 3,0 km/h (1 Bft)
17/11/2008 15:00 17,4 C 60 % 1016,9 hPa 0,0 l/m 0,5 km/h (0 Bft) S 1,00 h 0,178 mm 190 W/m 9,5 C 17,4 C 2,0 km/h (1 Bft)
17/11/2008 16:00 16,7 C 68 % 1017,0 hPa 0,0 l/m 0,1 km/h (0 Bft) S 0,85 h 0,102 mm 57 W/m 10,8 C 16,7 C 0,2 km/h (0 Bft)
17/11/2008 17:00 14,2 C 72 % 1017,5 hPa 0,0 l/m 1,5 km/h (1 Bft) O-NO 0,00 h 0,025 mm 6 W/m 9,3 C 14,2 C 2,0 km/h (1 Bft)
17/11/2008 18:00 12,9 C 73 % 1017,8 hPa 0,0 l/m 4,6 km/h (1 Bft) NO 0,00 h 0,025 mm 0 W/m 8,1 C 12,9 C 5,8 km/h (2 Bft)
17/11/2008 19:00 12,1 C 70 % 1018,2 hPa 0,0 l/m 5,2 km/h (1 Bft) O-NO 0,00 h 0,025 mm 0 W/m 6,8 C 12,1 C 7,3 km/h (2 Bft)
17/11/2008 20:00 11,9 C 65 % 1018,3 hPa 0,0 l/m 5,0 km/h (1 Bft) O-NO 0,00 h 0,051 mm 0 W/m 5,4 C 11,9 C 7,8 km/h (2 Bft)
17/11/2008 21:00 12,0 C 65 % 1018,2 hPa 0,0 l/m 8,0 km/h (2 Bft) NO 0,00 h 0,051 mm 0 W/m 5,5 C 12,0 C 11,9 km/h (2 Bft)
17/11/2008 22:00 12,2 C 63 % 1018,1 hPa 0,0 l/m 6,0 km/h (2 Bft) NO 0,00 h 0,051 mm 0 W/m 5,3 C 12,2 C 8,6 km/h (2 Bft)
17/11/2008 23:00 11,9 C 63 % 1018,1 hPa 0,0 l/m 4,6 km/h (1 Bft) O-NO 0,00 h 0,051 mm 0 W/m 5,0 C 11,9 C 6,6 km/h (2 Bft)
18/11/2008 00:00 11,5 C 65 % 1017,8 hPa 0,0 l/m 5,2 km/h (1 Bft) NO 0,00 h 0,051 mm 0 W/m 5,2 C 11,5 C 7,3 km/h (2 Bft)
18/11/2008 01:00 11,2 C 66 % 1017,3 hPa 0,0 l/m 4,3 km/h (1 Bft) NO 0,00 h 0,051 mm 0 W/m 5,1 C 11,2 C 6,3 km/h (2 Bft)
18/11/2008 02:00 10,8 C 66 % 1016,9 hPa 0,0 l/m 5,4 km/h (1 Bft) NO 0,00 h 0,051 mm 0 W/m 4,8 C 10,8 C 7,8 km/h (2 Bft)
18/11/2008 03:00 11,1 C 71 % 1016,5 hPa 0,0 l/m 5,4 km/h (1 Bft) NO 0,00 h 0,051 mm 0 W/m 6,0 C 11,1 C 8,0 km/h (2 Bft)
18/11/2008 04:00 11,5 C 73 % 1015,8 hPa 0,0 l/m 3,3 km/h (1 Bft) NO 0,00 h 0,051 mm 0 W/m 6,8 C 11,5 C 5,2 km/h (1 Bft)
18/11/2008 05:00 11,3 C 77 % 1015,5 hPa 0,0 l/m 3,7 km/h (1 Bft) NO 0,00 h 0,025 mm 0 W/m 7,4 C 11,3 C 5,8 km/h (1 Bft)
18/11/2008 06:00 11,1 C 78 % 1015,1 hPa 0,0 l/m 3,1 km/h (1 Bft) N-NO 0,00 h 0,025 mm 0 W/m 7,3 C 11,1 C 5,0 km/h (1 Bft)
18/11/2008 07:00 11,1 C 78 % 1015,1 hPa 0,0 l/m 4,0 km/h (1 Bft) N 0,00 h 0,025 mm 9 W/m 7,5 C 11,1 C 6,5 km/h (2 Bft)
18/11/2008 08:00 11,6 C 79 % 1015,0 hPa 0,0 l/m 2,3 km/h (1 Bft) N 0,00 h 0,025 mm 27 W/m 8,1 C 11,6 C 4,6 km/h (1 Bft)
18/11/2008 09:00 12,0 C 80 % 1014,7 hPa 0,0 l/m 2,6 km/h (1 Bft) N 0,00 h 0,025 mm 85 W/m 8,7 C 12,0 C 5,1 km/h (1 Bft)
18/11/2008 10:00 12,9 C 79 % 1014,3 hPa 0,0 l/m 3,2 km/h (1 Bft) N-NE 0,00 h 0,051 mm 105 W/m 9,3 C 12,9 C 5,2 km/h (1 Bft)
18/11/2008 11:00 13,5 C 77 % 1013,7 hPa 0,0 l/m 3,2 km/h (1 Bft) NE 0,00 h 0,076 mm 151 W/m 9,4 C 13,5 C 5,2 km/h (1 Bft)
18/11/2008 12:00 14,4 C 71 % 1012,8 hPa 0,0 l/m 7,0 km/h (2 Bft) NE 0,48 h 0,102 mm 283 W/m 9,3 C 14,4 C 10,2 km/h (2 Bft)
18/11/2008 13:00 14,0 C 73 % 1012,1 hPa 0,0 l/m 4,8 km/h (1 Bft) E-NE 0,00 h 0,178 mm 140 W/m 9,2 C 14,0 C 7,2 km/h (2 Bft)
18/11/2008 14:00 13,7 C 76 % 1011,6 hPa 0,0 l/m 6,1 km/h (2 Bft) E-NE 0,00 h 0,102 mm 102 W/m 9,6 C 13,7 C 8,7 km/h (2 Bft)
18/11/2008 15:00 13,4 C 77 % 1011,2 hPa 0,0 l/m 8,4 km/h (2 Bft) E-NE 0,00 h 0,076 mm 70 W/m 9,3 C 13,4 C 12,2 km/h (2 Bft)
18/11/2008 16:00 12,5 C 79 % 1010,8 hPa 0,0 l/m 4,0 km/h (1 Bft) E-NE 0,00 h 0,076 mm 28 W/m 9,0 C 12,5 C 6,4 km/h (2 Bft)
18/11/2008 17:00 11,4 C 81 % 1011,0 hPa 0,0 l/m 0,9 km/h (0 Bft) N-NE 0,00 h 0,025 mm 0 W/m 8,2 C 11,4 C 2,2 km/h (1 Bft)
18/11/2008 18:00 11,1 C 82 % 1011,2 hPa 0,0 l/m 1,4 km/h (1 Bft) NO 0,00 h 0,000 mm 0 W/m 8,1 C 11,1 C 3,5 km/h (1 Bft)
18/11/2008 19:00 11,0 C 83 % 1011,4 hPa 0,0 l/m 1,8 km/h (1 Bft) N-NE 0,00 h 0,025 mm 0 W/m 8,2 C 11,0 C 3,5 km/h (1 Bft)
18/11/2008 20:00 11,5 C 82 % 1011,5 hPa 0,0 l/m 1,0 km/h (0 Bft) NE 0,00 h 0,025 mm 0 W/m 8,6 C 11,5 C 2,1 km/h (1 Bft)
18/11/2008 21:00 11,7 C 80 % 1011,7 hPa 0,0 l/m 0,8 km/h (0 Bft) NE 0,00 h 0,025 mm 0 W/m 8,4 C 11,7 C 1,9 km/h (1 Bft)
18/11/2008 22:00 11,5 C 78 % 1011,8 hPa 0,0 l/m 1,6 km/h (1 Bft) N 0,00 h 0,025 mm 0 W/m 7,9 C 11,5 C 3,0 km/h (1 Bft)
18/11/2008 23:00 11,7 C 78 % 1012,0 hPa 0,0 l/m 3,9 km/h (1 Bft) N-NE 0,00 h 0,025 mm 0 W/m 8,0 C 11,7 C 6,3 km/h (2 Bft)
19/11/2008 00:00 11,4 C 78 % 1012,2 hPa 0,0 l/m 4,4 km/h (1 Bft) N-NE 0,00 h 0,025 mm 0 W/m 7,7 C 11,4 C 7,1 km/h (2 Bft)
19/11/2008 01:00 10,9 C 78 % 1012,4 hPa 0,0 l/m 4,2 km/h (1 Bft) N 0,00 h 0,025 mm 0 W/m 7,2 C 10,9 C 6,9 km/h (2 Bft)
19/11/2008 02:00 9,5 C 79 % 1012,5 hPa 0,0 l/m 2,5 km/h (1 Bft) N 0,00 h 0,025 mm 0 W/m 6,0 C 9,5 C 4,7 km/h (1 Bft)
19/11/2008 03:00 9,4 C 81 % 1012,8 hPa 0,0 l/m 3,1 km/h (1 Bft) NO 0,00 h 0,025 mm 0 W/m 6,3 C 9,3 C 4,9 km/h (1 Bft)
19/11/2008 04:00 8,9 C 83 % 1013,2 hPa 0,0 l/m 3,9 km/h (1 Bft) NO 0,00 h 0,025 mm 0 W/m 6,1 C 8,7 C 5,8 km/h (2 Bft)
19/11/2008 05:00 8,5 C 84 % 1013,6 hPa 0,0 l/m 4,2 km/h (1 Bft) NO 0,00 h 0,025 mm 0 W/m 5,9 C 8,2 C 6,2 km/h (2 Bft)
19/11/2008 06:00 8,3 C 85 % 1013,9 hPa 0,0 l/m 7,4 km/h (2 Bft) O-NO 0,00 h 0,025 mm 0 W/m 5,9 C 7,2 C 10,8 km/h (2 Bft)
19/11/2008 07:00 8,1 C 84 % 1014,4 hPa 0,0 l/m 4,6 km/h (1 Bft) O-NO 0,30 h 0,025 mm 18 W/m 5,6 C 7,6 C 7,6 km/h (2 Bft)
19/11/2008 08:00 8,9 C 81 % 1015,1 hPa 0,0 l/m 2,7 km/h (1 Bft) NO 1,00 h 0,025 mm 102 W/m 5,9 C 8,7 C 4,9 km/h (1 Bft)
19/11/2008 09:00 11,3 C 71 % 1015,6 hPa 0,0 l/m 0,8 km/h (0 Bft) N-NO 1,00 h 0,051 mm 232 W/m 6,1 C 11,3 C 1,5 km/h (1 Bft)
19/11/2008 10:00 14,0 C 64 % 1016,1 hPa 0,0 l/m 1,4 km/h (1 Bft) NE 1,00 h 0,127 mm 341 W/m 7,3 C 14,0 C 2,7 km/h (1 Bft)
19/11/2008 11:00 14,9 C 59 % 1016,4 hPa 0,0 l/m 3,9 km/h (1 Bft) E 1,00 h 0,178 mm 405 W/m 6,8 C 14,9 C 6,0 km/h (2 Bft)
19/11/2008 12:00 15,4 C 58 % 1016,3 hPa 0,0 l/m 4,8 km/h (1 Bft) E 1,00 h 0,229 mm 419 W/m 7,2 C 15,4 C 7,6 km/h (2 Bft)
19/11/2008 13:00 15,7 C 58 % 1016,0 hPa 0,0 l/m 5,4 km/h (1 Bft) E 1,00 h 0,254 mm 379 W/m 7,5 C 15,7 C 8,5 km/h (2 Bft)
19/11/2008 14:00 15,4 C 62 % 1016,1 hPa 0,0 l/m 2,9 km/h (1 Bft) S-SE 1,00 h 0,229 mm 294 W/m 8,3 C 15,4 C 5,5 km/h (1 Bft)
19/11/2008 15:00 14,6 C 66 % 1016,3 hPa 0,0 l/m 1,9 km/h (1 Bft) SE 1,00 h 0,178 mm 169 W/m 8,3 C 14,6 C 4,0 km/h (1 Bft)
19/11/2008 16:00 13,8 C 69 % 1016,6 hPa 0,0 l/m 1,1 km/h (0 Bft) SE 0,85 h 0,102 mm 49 W/m 8,3 C 13,8 C 2,4 km/h (1 Bft)
19/11/2008 17:00 12,0 C 73 % 1017,1 hPa 0,0 l/m 3,5 km/h (1 Bft) O 0,00 h 0,025 mm 6 W/m 7,4 C 12,0 C 4,8 km/h (1 Bft)
19/11/2008 18:00 10,8 C 79 % 1017,4 hPa 0,0 l/m 5,1 km/h (1 Bft) O-NO 0,00 h 0,025 mm 0 W/m 7,3 C 10,8 C 7,1 km/h (2 Bft)
19/11/2008 19:00 9,9 C 82 % 1017,9 hPa 0,0 l/m 4,2 km/h (1 Bft) O-NO 0,00 h 0,025 mm 0 W/m 7,0 C 9,7 C 6,2 km/h (2 Bft)
19/11/2008 20:00 9,6 C 83 % 1017,9 hPa 0,0 l/m 4,1 km/h (1 Bft) NO 0,00 h 0,025 mm 0 W/m 6,8 C 9,4 C 5,9 km/h (2 Bft)
19/11/2008 21:00 9,3 C 85 % 1018,2 hPa 0,0 l/m 5,0 km/h (1 Bft) O-NO 0,00 h 0,025 mm 0 W/m 7,0 C 8,9 C 6,5 km/h (2 Bft)
19/11/2008 22:00 9,0 C 84 % 1018,3 hPa 0,0 l/m 4,1 km/h (1 Bft) O-NO 0,00 h 0,025 mm 0 W/m 6,4 C 8,7 C 6,3 km/h (2 Bft)
19/11/2008 23:00 8,7 C 84 % 1018,4 hPa 0,0 l/m 4,7 km/h (1 Bft) O-NO 0,00 h 0,025 mm 0 W/m 6,1 C 8,3 C 6,6 km/h (2 Bft)
20/11/2008 00:00 8,4 C 83 % 1018,3 hPa 0,0 l/m 4,2 km/h (1 Bft) O-NO 0,00 h 0,025 mm 0 W/m 5,7 C 8,1 C 5,8 km/h (2 Bft)
20/11/2008 01:00 8,3 C 82 % 1018,2 hPa 0,0 l/m 4,8 km/h (1 Bft) O-NO 0,00 h 0,025 mm 0 W/m 5,4 C 7,9 C 6,5 km/h (2 Bft)
20/11/2008 02:00 8,0 C 80 % 1018,0 hPa 0,0 l/m 4,5 km/h (1 Bft) O-NO 0,00 h 0,025 mm 0 W/m 4,8 C 7,6 C 6,4 km/h (2 Bft)
20/11/2008 03:00 7,1 C 80 % 1017,9 hPa 0,0 l/m 5,0 km/h (1 Bft) O-NO 0,00 h 0,025 mm 0 W/m 3,9 C 6,5 C 7,9 km/h (2 Bft)
20/11/2008 04:00 7,2 C 76 % 1017,5 hPa 0,0 l/m 5,3 km/h (1 Bft) O-NO 0,00 h 0,025 mm 0 W/m 3,2 C 6,5 C 7,7 km/h (2 Bft)
20/11/2008 05:00 7,1 C 67 % 1017,4 hPa 0,0 l/m 2,3 km/h (1 Bft) O-NO 0,00 h 0,025 mm 0 W/m 1,3 C 6,9 C 3,6 km/h (1 Bft)
20/11/2008 06:00 7,4 C 65 % 1017,5 hPa 0,0 l/m 6,7 km/h (2 Bft) O 0,00 h 0,025 mm 0 W/m 1,3 C 6,4 C 8,5 km/h (2 Bft)
20/11/2008 07:00 7,7 C 64 % 1017,4 hPa 0,0 l/m 3,3 km/h (1 Bft) O 0,15 h 0,051 mm 15 W/m 1,4 C 7,4 C 4,9 km/h (1 Bft)
20/11/2008 08:00 9,1 C 60 % 1017,6 hPa 0,0 l/m 3,1 km/h (1 Bft) O 0,57 h 0,025 mm 76 W/m 1,8 C 8,8 C 4,0 km/h (1 Bft)
20/11/2008 09:00 10,4 C 59 % 1017,7 hPa 0,0 l/m 3,2 km/h (1 Bft) N-NO 0,92 h 0,051 mm 194 W/m 2,7 C 10,2 C 4,7 km/h (1 Bft)
20/11/2008 10:00 12,9 C 57 % 1017,6 hPa 0,0 l/m 1,2 km/h (1 Bft) NE 1,00 h 0,102 mm 330 W/m 4,5 C 12,9 C 2,2 km/h (1 Bft)
20/11/2008 11:00 14,5 C 67 % 1017,3 hPa 0,0 l/m 3,8 km/h (1 Bft) S-SE 1,00 h 0,178 mm 406 W/m 8,5 C 14,5 C 6,2 km/h (2 Bft)
20/11/2008 12:00 15,1 C 69 % 1016,3 hPa 0,0 l/m 6,1 km/h (2 Bft) S-SE 1,00 h 0,229 mm 412 W/m 9,5 C 15,1 C 9,1 km/h (2 Bft)
20/11/2008 13:00 15,2 C 73 % 1015,5 hPa 0,0 l/m 6,3 km/h (2 Bft) E 1,00 h 0,254 mm 374 W/m 10,3 C 15,2 C 9,5 km/h (2 Bft)
20/11/2008 14:00 14,9 C 72 % 1014,8 hPa 0,0 l/m 5,5 km/h (1 Bft) S-SE 1,00 h 0,229 mm 315 W/m 10,0 C 14,9 C 8,4 km/h (2 Bft)
20/11/2008 15:00 14,1 C 75 % 1014,6 hPa 0,0 l/m 3,5 km/h (1 Bft) SE 0,98 h 0,178 mm 152 W/m 9,7 C 14,1 C 5,7 km/h (1 Bft)
20/11/2008 16:00 13,3 C 77 % 1014,6 hPa 0,0 l/m 0,7 km/h (0 Bft) SE 0,85 h 0,102 mm 50 W/m 9,3 C 13,3 C 1,7 km/h (1 Bft)
20/11/2008 17:00 11,6 C 78 % 1014,5 hPa 0,0 l/m 0,7 km/h (0 Bft) SE 0,00 h 0,025 mm 5 W/m 7,9 C 11,6 C 1,1 km/h (0 Bft)
20/11/2008 18:00 10,9 C 81 % 1014,6 hPa 0,0 l/m 1,1 km/h (0 Bft) N 0,00 h 0,000 mm 0 W/m 7,7 C 10,9 C 2,4 km/h (1 Bft)
20/11/2008 19:00 10,5 C 84 % 1014,5 hPa 0,0 l/m 2,6 km/h (1 Bft) N 0,00 h 0,025 mm 0 W/m 7,9 C 10,5 C 4,2 km/h (1 Bft)
20/11/2008 20:00 9,9 C 86 % 1014,5 hPa 0,0 l/m 1,8 km/h (1 Bft) N 0,00 h 0,025 mm 0 W/m 7,6 C 9,9 C 3,5 km/h (1 Bft)
20/11/2008 21:00 9,7 C 87 % 1013,9 hPa 0,0 l/m 4,0 km/h (1 Bft) NO 0,00 h 0,025 mm 0 W/m 7,7 C 9,5 C 5,8 km/h (2 Bft)
20/11/2008 22:00 9,2 C 88 % 1013,8 hPa 0,0 l/m 3,2 km/h (1 Bft) NO 0,00 h 0,025 mm 0 W/m 7,3 C 9,1 C 5,0 km/h (1 Bft)
20/11/2008 23:00 8,8 C 89 % 1013,0 hPa 0,0 l/m 3,7 km/h (1 Bft) O-NO 0,00 h 0,025 mm 0 W/m 7,1 C 8,6 C 5,9 km/h (2 Bft)
21/11/2008 00:00 8,1 C 88 % 1012,4 hPa 0,0 l/m 6,1 km/h (2 Bft) O 0,00 h 0,025 mm 0 W/m 6,3 C 7,3 C 8,3 km/h (2 Bft)
21/11/2008 01:00 8,2 C 80 % 1011,3 hPa 0,0 l/m 6,3 km/h (2 Bft) O 0,00 h 0,025 mm 0 W/m 5,0 C 7,4 C 8,8 km/h (2 Bft)
21/11/2008 02:00 7,8 C 77 % 1010,5 hPa 0,0 l/m 1,6 km/h (1 Bft) O-NO 0,00 h 0,025 mm 0 W/m 4,0 C 7,7 C 3,0 km/h (1 Bft)
21/11/2008 03:00 7,4 C 79 % 1009,7 hPa 0,0 l/m 3,3 km/h (1 Bft) SO 0,00 h 0,025 mm 0 W/m 4,0 C 7,1 C 4,2 km/h (1 Bft)
21/11/2008 04:00 7,8 C 79 % 1008,9 hPa 0,0 l/m 3,6 km/h (1 Bft) N-NO 0,00 h 0,025 mm 0 W/m 4,4 C 7,6 C 4,9 km/h (1 Bft)
21/11/2008 05:00 7,7 C 81 % 1008,3 hPa 0,0 l/m 4,5 km/h (1 Bft) NO 0,00 h 0,025 mm 0 W/m 4,6 C 7,3 C 6,0 km/h (2 Bft)
21/11/2008 06:00 7,6 C 82 % 1007,9 hPa 0,0 l/m 4,8 km/h (1 Bft) NO 0,00 h 0,025 mm 0 W/m 4,7 C 7,1 C 6,8 km/h (2 Bft)
21/11/2008 07:00 7,8 C 82 % 1007,5 hPa 0,0 l/m 4,1 km/h (1 Bft) N-NO 0,25 h 0,025 mm 19 W/m 4,9 C 7,5 C 5,9 km/h (2 Bft)
21/11/2008 08:00 9,1 C 82 % 1007,0 hPa 0,0 l/m 3,5 km/h (1 Bft) N-NO 0,35 h 0,025 mm 72 W/m 6,1 C 8,9 C 5,4 km/h (1 Bft)
21/11/2008 09:00 10,4 C 79 % 1006,4 hPa 0,0 l/m 4,0 km/h (1 Bft) O-NO 0,37 h 0,051 mm 155 W/m 6,8 C 10,2 C 5,8 km/h (2 Bft)
21/11/2008 10:00 12,1 C 78 % 1005,5 hPa 0,0 l/m 1,0 km/h (0 Bft) E 0,67 h 0,076 mm 231 W/m 8,4 C 12,1 C 2,1 km/h (1 Bft)
21/11/2008 11:00 13,0 C 78 % 1004,6 hPa 0,0 l/m 1,8 km/h (1 Bft) E-NE 0,47 h 0,127 mm 278 W/m 9,3 C 13,0 C 3,6 km/h (1 Bft)
21/11/2008 12:00 12,8 C 80 % 1003,4 hPa 0,0 l/m 2,6 km/h (1 Bft) NE 0,35 h 0,152 mm 245 W/m 9,4 C 12,8 C 4,1 km/h (1 Bft)
21/11/2008 13:00 13,8 C 75 % 1001,5 hPa 0,0 l/m 2,6 km/h (1 Bft) E-NE 1,00 h 0,127 mm 366 W/m 9,4 C 13,8 C 4,5 km/h (1 Bft)
21/11/2008 14:00 14,3 C 74 % 1000,1 hPa 0,0 l/m 4,0 km/h (1 Bft) E-NE 0,88 h 0,203 mm 266 W/m 9,7 C 14,3 C 6,0 km/h (2 Bft)
21/11/2008 15:00 13,5 C 80 % 998,8 hPa 0,0 l/m 5,7 km/h (1 Bft) E-NE 0,77 h 0,152 mm 147 W/m 10,0 C 13,5 C 8,4 km/h (2 Bft)
21/11/2008 16:00 12,2 C 82 % 998,2 hPa 0,0 l/m 3,9 km/h (1 Bft) E-NE 0,37 h 0,102 mm 43 W/m 9,3 C 12,2 C 5,8 km/h (2 Bft)
21/11/2008 17:00 10,8 C 85 % 997,5 hPa 0,0 l/m 3,8 km/h (1 Bft) NE 0,00 h 0,025 mm 6 W/m 8,4 C 10,8 C 5,7 km/h (1 Bft)
21/11/2008 18:00 10,2 C 88 % 996,7 hPa 0,0 l/m 3,9 km/h (1 Bft) N 0,00 h 0,000 mm 0 W/m 8,3 C 10,0 C 6,3 km/h (2 Bft)
21/11/2008 19:00 10,1 C 89 % 995,7 hPa 0,0 l/m 6,6 km/h (2 Bft) NE 0,00 h 0,025 mm 0 W/m 8,4 C 9,8 C 10,1 km/h (2 Bft)
21/11/2008 20:00 10,5 C 89 % 994,7 hPa 0,0 l/m 5,6 km/h (1 Bft) N 0,00 h 0,025 mm 0 W/m 8,8 C 10,5 C 8,5 km/h (2 Bft)
21/11/2008 21:00 15,0 C 54 % 994,0 hPa 0,0 l/m 15,2 km/h (3 Bft) O-NO 0,00 h 0,025 mm 0 W/m 5,0 C 15,0 C 24,2 km/h (4 Bft)
21/11/2008 22:00 18,1 C 31 % 993,6 hPa 0,0 l/m 22,6 km/h (4 Bft) O-NO 0,00 h 0,102 mm 0 W/m 0,8 C 18,1 C 37,1 km/h (5 Bft)
21/11/2008 23:00 18,2 C 26 % 993,3 hPa 0,0 l/m 26,0 km/h (4 Bft) O-NO 0,00 h 0,203 mm 0 W/m -1,4 C 18,2 C 42,7 km/h (6 Bft)
22/11/2008 00:00 17,9 C 24 % 993,8 hPa 0,0 l/m 17,8 km/h (3 Bft) NO 0,00 h 0,254 mm 0 W/m -3,0 C 17,9 C 29,2 km/h (5 Bft)
22/11/2008 01:00 17,0 C 22 % 994,1 hPa 0,0 l/m 10,2 km/h (2 Bft) NO 0,00 h 0,203 mm 0 W/m -4,9 C 17,0 C 15,1 km/h (3 Bft)
22/11/2008 02:00 13,8 C 63 % 994,8 hPa 0,0 l/m 6,5 km/h (2 Bft) E 0,00 h 0,127 mm 0 W/m 6,3 C 13,8 C 9,9 km/h (2 Bft)
22/11/2008 03:00 11,8 C 82 % 995,2 hPa 0,0 l/m 4,7 km/h (1 Bft) N-NE 0,00 h 0,051 mm 0 W/m 8,9 C 11,8 C 7,6 km/h (2 Bft)
22/11/2008 04:00 10,6 C 86 % 995,8 hPa 0,0 l/m 1,5 km/h (1 Bft) N 0,00 h 0,025 mm 0 W/m 8,3 C 10,6 C 3,6 km/h (1 Bft)
22/11/2008 05:00 10,9 C 87 % 995,9 hPa 0,0 l/m 2,8 km/h (1 Bft) N 0,00 h 0,025 mm 0 W/m 8,9 C 10,9 C 5,0 km/h (1 Bft)
22/11/2008 06:00 11,3 C 87 % 996,6 hPa 0,0 l/m 3,5 km/h (1 Bft) N 0,00 h 0,025 mm 0 W/m 9,2 C 11,3 C 5,9 km/h (2 Bft)
22/11/2008 07:00 11,4 C 75 % 996,9 hPa 0,0 l/m 2,9 km/h (1 Bft) N 0,23 h 0,025 mm 21 W/m 7,0 C 11,4 C 4,8 km/h (1 Bft)
22/11/2008 08:00 12,5 C 64 % 997,3 hPa 0,0 l/m 2,6 km/h (1 Bft) SE 1,00 h 0,025 mm 97 W/m 6,0 C 12,5 C 4,6 km/h (1 Bft)
22/11/2008 09:00 13,3 C 63 % 997,2 hPa 0,0 l/m 1,9 km/h (1 Bft) E 0,92 h 0,076 mm 174 W/m 6,5 C 13,3 C 3,7 km/h (1 Bft)
22/11/2008 10:00 13,1 C 63 % 997,3 hPa 0,0 l/m 1,3 km/h (1 Bft) NE 0,28 h 0,102 mm 195 W/m 6,2 C 13,1 C 3,0 km/h (1 Bft)
22/11/2008 11:00 14,2 C 59 % 997,4 hPa 0,0 l/m 6,5 km/h (2 Bft) E-NE 0,67 h 0,102 mm 312 W/m 6,1 C 14,2 C 10,0 km/h (2 Bft)
22/11/2008 12:00 14,8 C 55 % 997,0 hPa 0,0 l/m 9,4 km/h (2 Bft) E 0,40 h 0,203 mm 298 W/m 5,9 C 14,8 C 15,1 km/h (3 Bft)
22/11/2008 13:00 14,2 C 56 % 996,9 hPa 0,0 l/m 12,4 km/h (3 Bft) E 0,33 h 0,203 mm 231 W/m 5,6 C 14,2 C 18,2 km/h (3 Bft)
22/11/2008 14:00 13,1 C 58 % 997,3 hPa 0,0 l/m 12,2 km/h (3 Bft) E 0,00 h 0,203 mm 57 W/m 5,1 C 13,1 C 18,2 km/h (3 Bft)
22/11/2008 15:00 12,5 C 59 % 997,9 hPa 0,0 l/m 10,4 km/h (2 Bft) E-NE 0,00 h 0,102 mm 36 W/m 4,7 C 12,5 C 15,6 km/h (3 Bft)
22/11/2008 16:00 11,8 C 57 % 998,5 hPa 0,0 l/m 8,1 km/h (2 Bft) E-NE 0,00 h 0,076 mm 10 W/m 3,7 C 11,8 C 11,5 km/h (2 Bft)
22/11/2008 17:00 11,0 C 47 % 999,4 hPa 0,0 l/m 9,1 km/h (2 Bft) O-NO 0,00 h 0,051 mm 0 W/m -0,1 C 11,0 C 13,4 km/h (3 Bft)
22/11/2008 18:00 10,5 C 27 % 1000,3 hPa 0,0 l/m 12,6 km/h (3 Bft) O 0,00 h 0,051 mm 0 W/m -7,8 C 10,5 C 18,1 km/h (3 Bft)
22/11/2008 19:00 10,1 C 25 % 1000,9 hPa 0,0 l/m 11,0 km/h (2 Bft) O 0,00 h 0,127 mm 0 W/m -9,1 C 9,5 C 16,0 km/h (3 Bft)
22/11/2008 20:00 9,3 C 34 % 1001,4 hPa 0,0 l/m 13,0 km/h (3 Bft) O-SO 0,00 h 0,127 mm 0 W/m -6,1 C 7,4 C 17,0 km/h (3 Bft)
22/11/2008 21:00 8,8 C 46 % 1001,8 hPa 0,0 l/m 12,2 km/h (2 Bft) O-NO 0,00 h 0,102 mm 0 W/m -2,2 C 6,9 C 16,9 km/h (3 Bft)
22/11/2008 22:00 8,4 C 40 % 1002,4 hPa 0,0 l/m 6,3 km/h (2 Bft) E 0,00 h 0,076 mm 0 W/m -4,5 C 7,6 C 8,8 km/h (2 Bft)
22/11/2008 23:00 7,9 C 44 % 1003,1 hPa 0,0 l/m 7,1 km/h (2 Bft) O-NO 0,00 h 0,076 mm 0 W/m -3,7 C 6,8 C 10,2 km/h (2 Bft)
23/11/2008 00:00 7,7 C 50 % 1003,4 hPa 0,0 l/m 1,5 km/h (1 Bft) E-NE 0,00 h 0,076 mm 0 W/m -2,0 C 7,6 C 2,9 km/h (1 Bft)
23/11/2008 01:00 7,4 C 53 % 1003,4 hPa 0,0 l/m 2,1 km/h (1 Bft) N 0,00 h 0,051 mm 0 W/m -1,4 C 7,4 C 4,4 km/h (1 Bft)
23/11/2008 02:00 7,3 C 54 % 1003,4 hPa 0,0 l/m 4,1 km/h (1 Bft) N 0,00 h 0,051 mm 0 W/m -1,5 C 6,9 C 7,1 km/h (2 Bft)
23/11/2008 03:00 7,1 C 54 % 1003,5 hPa 0,0 l/m 1,7 km/h (1 Bft) N 0,00 h 0,051 mm 0 W/m -1,7 C 7,1 C 3,6 km/h (1 Bft)
23/11/2008 04:00 7,1 C 56 % 1003,5 hPa 0,0 l/m 4,4 km/h (1 Bft) O-NO 0,00 h 0,025 mm 0 W/m -1,0 C 6,4 C 6,3 km/h (2 Bft)
23/11/2008 05:00 6,8 C 58 % 1004,0 hPa 0,0 l/m 3,4 km/h (1 Bft) NO 0,00 h 0,051 mm 0 W/m -0,9 C 6,4 C 5,6 km/h (1 Bft)
23/11/2008 06:00 6,3 C 62 % 1004,5 hPa 0,0 l/m 1,9 km/h (1 Bft) N 0,00 h 0,051 mm 0 W/m -0,5 C 6,2 C 4,1 km/h (1 Bft)
23/11/2008 07:00 6,1 C 64 % 1005,3 hPa 0,0 l/m 3,7 km/h (1 Bft) N 0,00 h 0,025 mm 8 W/m -0,2 C 5,8 C 7,0 km/h (2 Bft)
23/11/2008 08:00 6,1 C 66 % 1006,4 hPa 0,0 l/m 4,5 km/h (1 Bft) N 0,00 h 0,025 mm 16 W/m 0,1 C 5,5 C 8,0 km/h (2 Bft)
23/11/2008 09:00 6,6 C 65 % 1007,3 hPa 0,0 l/m 4,7 km/h (1 Bft) O-NO 0,00 h 0,025 mm 79 W/m 0,5 C 5,9 C 6,9 km/h (2 Bft)
23/11/2008 10:00 8,1 C 60 % 1007,7 hPa 0,0 l/m 1,2 km/h (1 Bft) N-NO 0,53 h 0,051 mm 217 W/m 0,9 C 8,1 C 2,7 km/h (1 Bft)
23/11/2008 11:00 8,9 C 54 % 1007,9 hPa 0,0 l/m 1,7 km/h (1 Bft) NE 0,05 h 0,102 mm 205 W/m -0,0 C 8,9 C 3,3 km/h (1 Bft)
23/11/2008 12:00 9,7 C 42 % 1007,6 hPa 0,0 l/m 1,5 km/h (1 Bft) N 0,72 h 0,102 mm 318 W/m -2,5 C 9,7 C 3,4 km/h (1 Bft)
23/11/2008 13:00 10,2 C 41 % 1007,0 hPa 0,0 l/m 3,1 km/h (1 Bft) E 0,63 h 0,152 mm 325 W/m -2,5 C 10,1 C 5,2 km/h (1 Bft)
23/11/2008 14:00 9,3 C 44 % 1006,6 hPa 0,0 l/m 7,0 km/h (2 Bft) S-SO 0,02 h 0,178 mm 126 W/m -2,4 C 8,4 C 9,8 km/h (2 Bft)
23/11/2008 15:00 8,9 C 49 % 1006,4 hPa 0,0 l/m 6,2 km/h (2 Bft) SO 0,05 h 0,102 mm 91 W/m -1,3 C 8,2 C 8,4 km/h (2 Bft)
23/11/2008 16:00 8,0 C 55 % 1006,3 hPa 0,0 l/m 10,7 km/h (2 Bft) SO 0,32 h 0,076 mm 30 W/m -0,6 C 6,1 C 14,2 km/h (3 Bft)
23/11/2008 17:00 6,2 C 63 % 1006,0 hPa 0,0 l/m 9,6 km/h (2 Bft) O-SO 0,00 h 0,076 mm 0 W/m -0,4 C 4,3 C 13,2 km/h (3 Bft)
23/11/2008 18:00 5,5 C 65 % 1005,7 hPa 0,0 l/m 15,2 km/h (3 Bft) O-SO 0,00 h 0,051 mm 0 W/m -0,6 C 2,3 C 19,4 km/h (3 Bft)
23/11/2008 19:00 5,0 C 65 % 1005,1 hPa 0,0 l/m 10,3 km/h (2 Bft) O-SO 0,00 h 0,051 mm 0 W/m -0,9 C 2,7 C 14,5 km/h (3 Bft)
23/11/2008 20:00 4,2 C 68 % 1004,4 hPa 0,0 l/m 12,4 km/h (3 Bft) O-SO 0,00 h 0,051 mm 0 W/m -1,2 C 1,2 C 17,4 km/h (3 Bft)
23/11/2008 21:00 3,9 C 68 % 1003,3 hPa 0,0 l/m 13,0 km/h (3 Bft) O-SO 0,00 h 0,051 mm 0 W/m -1,5 C 0,9 C 18,0 km/h (3 Bft)
23/11/2008 22:00 4,1 C 65 % 1002,1 hPa 0,0 l/m 2,7 km/h (1 Bft) O 0,00 h 0,051 mm 0 W/m -1,9 C 3,7 C 4,3 km/h (1 Bft)
23/11/2008 23:00 3,9 C 67 % 1000,6 hPa 0,0 l/m 3,0 km/h (1 Bft) O 0,00 h 0,025 mm 0 W/m -1,7 C 3,6 C 4,6 km/h (1 Bft)
Min-Date _ 23/11/08 22/11/08 21/11/08 - 17/11/08 - - - - 22/11/08 23/11/08 17/11/08
_ Min-Heure 21:01 01:08 23:30 - 00:21 - - - - 19:24 21:02 01:58
Minimum _ 3,7 C 21 % 992,8 hPa - 0,0 km/h (0 Bft) - - - - -9,5 C -0,7 C 0,0 km/h (0 Bft)
Max-Date _ 17/11/08 21/11/08 17/11/08 17/11/08 21/11/08 - 17/11/08 19/11/08 17/11/08 17/11/08 17/11/08 21/11/08
_ Max-Heure 14:34 00:02 00:00 00:00 23:05 - 07:39 13:00 12:23 16:25 14:34 23:05
Maximum _ 18,6 C 93 % 1019,0 hPa 0,0 l/m 59,5 km/h
O-NO (7 Bft)
- 0,02 h 0,254 mm 642 W/m 11,1 C 18,6 C 78,9 km/h
O-NO (9 Bft)
Moyenne _ 11,0 C 68 % 1009,8 hPa #0,0 l/m 4,8 km/h (1 Bft) O-NO #37:13 h #12,227 mm 170 W/m 4,9 C 10,8 C 7,4 km/h (2 Bft)
Roquefort les pins